sensor_id;sensor_type;location;lat;lon;timestamp;pressure;altitude;pressure_sealevel;temperature;humidity
60337;BME280;46978;50.288;28.624;2023-05-11T00:00:49;99831.31;;;1.10;85.55
60337;BME280;46978;50.288;28.624;2023-05-11T00:01:51;99823.64;;;1.10;86.16
60337;BME280;46978;50.288;28.624;2023-05-11T00:02:53;99818.53;;;1.10;86.15
60337;BME280;46978;50.288;28.624;2023-05-11T00:03:54;99821.09;;;1.10;86.44
60337;BME280;46978;50.288;28.624;2023-05-11T00:04:56;99817.72;;;1.11;87.52
60337;BME280;46978;50.288;28.624;2023-05-11T00:05:58;99816.87;;;1.10;87.90
60337;BME280;46978;50.288;28.624;2023-05-11T00:06:59;99819.46;;;1.12;88.20
60337;BME280;46978;50.288;28.624;2023-05-11T00:08:01;99814.31;;;1.10;88.01
60337;BME280;46978;50.288;28.624;2023-05-11T00:09:03;99821.09;;;1.10;87.87
60337;BME280;46978;50.288;28.624;2023-05-11T00:10:05;99817.67;;;1.09;88.36
60337;BME280;46978;50.288;28.624;2023-05-11T00:11:08;99819.34;;;1.07;87.96
60337;BME280;46978;50.288;28.624;2023-05-11T00:12:09;99821.84;;;1.05;87.49
60337;BME280;46978;50.288;28.624;2023-05-11T00:13:11;99823.44;;;1.02;87.23
60337;BME280;46978;50.288;28.624;2023-05-11T00:14:12;99823.44;;;1.02;87.66
60337;BME280;46978;50.288;28.624;2023-05-11T00:15:14;99824.28;;;1.01;87.57
60337;BME280;46978;50.288;28.624;2023-05-11T00:16:16;99822.53;;;1.00;87.64
60337;BME280;46978;50.288;28.624;2023-05-11T00:17:17;99820.83;;;1.00;87.78
60337;BME280;46978;50.288;28.624;2023-05-11T00:18:20;99821.72;;;1.01;88.04
60337;BME280;46978;50.288;28.624;2023-05-11T00:19:21;99828.45;;;0.99;88.13
60337;BME280;46978;50.288;28.624;2023-05-11T00:20:23;99824.16;;;0.96;88.12
60337;BME280;46978;50.288;28.624;2023-05-11T00:21:24;99826.66;;;0.95;87.89
60337;BME280;46978;50.288;28.624;2023-05-11T00:22:26;99822.36;;;0.94;87.28
60337;BME280;46978;50.288;28.624;2023-05-11T00:23:28;99819.72;;;0.91;87.14
60337;BME280;46978;50.288;28.624;2023-05-11T00:24:29;99820.53;;;0.89;86.93
60337;BME280;46978;50.288;28.624;2023-05-11T00:25:31;99822.19;;;0.87;86.47
60337;BME280;46978;50.288;28.624;2023-05-11T00:26:32;99831.52;;;0.85;86.21
60337;BME280;46978;50.288;28.624;2023-05-11T00:27:34;99826.36;;;0.84;86.69
60337;BME280;46978;50.288;28.624;2023-05-11T00:28:36;99825.37;;;0.80;86.07
60337;BME280;46978;50.288;28.624;2023-05-11T00:29:37;99824.48;;;0.78;86.20
60337;BME280;46978;50.288;28.624;2023-05-11T00:30:39;99831.25;;;0.76;85.77
60337;BME280;46978;50.288;28.624;2023-05-11T00:31:41;99832.87;;;0.74;85.97
60337;BME280;46978;50.288;28.624;2023-05-11T00:32:43;99830.27;;;0.73;86.57
60337;BME280;46978;50.288;28.624;2023-05-11T00:33:45;99825.12;;;0.71;86.56
60337;BME280;46978;50.288;28.624;2023-05-11T00:34:46;99830.19;;;0.69;87.35
60337;BME280;46978;50.288;28.624;2023-05-11T00:35:48;99835.29;;;0.69;87.63
60337;BME280;46978;50.288;28.624;2023-05-11T00:36:50;99831.92;;;0.70;88.50
60337;BME280;46978;50.288;28.624;2023-05-11T00:37:52;99829.38;;;0.70;89.01
60337;BME280;46978;50.288;28.624;2023-05-11T00:38:53;99832.78;;;0.71;89.08
60337;BME280;46978;50.288;28.624;2023-05-11T00:39:55;99830.19;;;0.69;88.19
60337;BME280;46978;50.288;28.624;2023-05-11T00:40:56;99826.73;;;0.67;88.32
60337;BME280;46978;50.288;28.624;2023-05-11T00:41:58;99824.98;;;0.66;88.19
60337;BME280;46978;50.288;28.624;2023-05-11T00:42:59;99821.58;;;0.66;88.16
60337;BME280;46978;50.288;28.624;2023-05-11T00:44:01;99824.08;;;0.64;88.04
60337;BME280;46978;50.288;28.624;2023-05-11T00:45:03;99822.34;;;0.63;88.02
60337;BME280;46978;50.288;28.624;2023-05-11T00:46:06;99826.55;;;0.61;87.66
60337;BME280;46978;50.288;28.624;2023-05-11T00:47:07;99825.64;;;0.59;87.19
60337;BME280;46978;50.288;28.624;2023-05-11T00:48:09;99825.60;;;0.58;87.37
60337;BME280;46978;50.288;28.624;2023-05-11T00:49:11;99828.11;;;0.56;87.57
60337;BME280;46978;50.288;28.624;2023-05-11T00:50:13;99824.63;;;0.54;87.72
60337;BME280;46978;50.288;28.624;2023-05-11T00:51:15;99823.81;;;0.55;88.08
60337;BME280;46978;50.288;28.624;2023-05-11T00:52:16;99829.73;;;0.54;88.11
60337;BME280;46978;50.288;28.624;2023-05-11T00:53:18;99828.88;;;0.53;88.18
60337;BME280;46978;50.288;28.624;2023-05-11T00:54:20;99822.02;;;0.52;88.46
60337;BME280;46978;50.288;28.624;2023-05-11T00:55:21;99827.97;;;0.51;88.16
60337;BME280;46978;50.288;28.624;2023-05-11T00:56:23;99828.78;;;0.50;88.50
60337;BME280;46978;50.288;28.624;2023-05-11T00:57:25;99823.67;;;0.50;88.75
60337;BME280;46978;50.288;28.624;2023-05-11T00:58:27;99832.14;;;0.49;88.82
60337;BME280;46978;50.288;28.624;2023-05-11T00:59:30;99827.93;;;0.50;88.71
60337;BME280;46978;50.288;28.624;2023-05-11T01:00:32;99828.78;;;0.50;88.80
60337;BME280;46978;50.288;28.624;2023-05-11T01:01:35;99832.98;;;0.48;89.23
60337;BME280;46978;50.288;28.624;2023-05-11T01:02:38;99832.94;;;0.47;89.18
60337;BME280;46978;50.288;28.624;2023-05-11T01:03:40;99825.23;;;0.45;88.80
60337;BME280;46978;50.288;28.624;2023-05-11T01:04:42;99830.25;;;0.42;88.49
60337;BME280;46978;50.288;28.624;2023-05-11T01:05:52;99829.41;;;0.43;88.70
60337;BME280;46978;50.288;28.624;2023-05-11T01:07:05;99825.09;;;0.41;89.10
60337;BME280;46978;50.288;28.624;2023-05-11T01:08:16;99830.20;;;0.41;89.82
60337;BME280;46978;50.288;28.624;2023-05-11T01:10:47;99830.97;;;0.38;90.06
60337;BME280;46978;50.288;28.624;2023-05-11T01:11:59;99838.63;;;0.38;90.03
60337;BME280;46978;50.288;28.624;2023-05-11T01:14:40;99836.78;;;0.34;89.19
60337;BME280;46978;50.288;28.624;2023-05-11T01:15:50;99826.53;;;0.32;89.40
60337;BME280;46978;50.288;28.624;2023-05-11T01:16:58;99833.28;;;0.30;88.95
60337;BME280;46978;50.288;28.624;2023-05-11T01:19:42;99834.89;;;0.27;89.59
60337;BME280;46978;50.288;28.624;2023-05-11T01:20:46;99839.99;;;0.27;90.08
60337;BME280;46978;50.288;28.624;2023-05-11T01:21:49;99837.39;;;0.25;90.30
60337;BME280;46978;50.288;28.624;2023-05-11T01:31:08;99832.76;;;0.13;91.08
60337;BME280;46978;50.288;28.624;2023-05-11T01:32:14;99833.62;;;0.14;91.63
60337;BME280;46978;50.288;28.624;2023-05-11T01:33:19;99842.06;;;0.11;91.49
60337;BME280;46978;50.288;28.624;2023-05-11T01:34:24;99839.52;;;0.11;91.18
60337;BME280;46978;50.288;28.624;2023-05-11T01:35:27;99838.58;;;0.09;91.06
60337;BME280;46978;50.288;28.624;2023-05-11T01:36:33;99847.07;;;0.08;91.71
60337;BME280;46978;50.288;28.624;2023-05-11T01:37:37;99849.63;;;0.08;92.14
60337;BME280;46978;50.288;28.624;2023-05-11T01:38:43;99844.52;;;0.08;92.42
60337;BME280;46978;50.288;28.624;2023-05-11T01:39:51;99841.92;;;0.07;92.71
60337;BME280;46978;50.288;28.624;2023-05-11T01:40:56;99846.13;;;0.06;92.85
60337;BME280;46978;50.288;28.624;2023-05-11T01:42:09;99841.03;;;0.06;92.98
60337;BME280;46978;50.288;28.624;2023-05-11T01:43:13;99834.88;;;-0.01;92.83
60337;BME280;46978;50.288;28.624;2023-05-11T01:44:17;99844.37;;;0.04;92.81
60337;BME280;46978;50.288;28.624;2023-05-11T01:45:21;99842.58;;;0.01;92.18
60337;BME280;46978;50.288;28.624;2023-05-11T01:46:26;99840.81;;;-0.02;92.24
60337;BME280;46978;50.288;28.624;2023-05-11T01:47:29;99839.88;;;-0.04;91.92
60337;BME280;46978;50.288;28.624;2023-05-11T01:48:34;99839.78;;;-0.07;91.69
60337;BME280;46978;50.288;28.624;2023-05-11T01:49:39;99841.42;;;-0.09;92.39
60337;BME280;46978;50.288;28.624;2023-05-11T01:50:43;99843.92;;;-0.10;92.39
60337;BME280;46978;50.288;28.624;2023-05-11T01:51:46;99843.92;;;-0.10;92.27
60337;BME280;46978;50.288;28.624;2023-05-11T01:52:50;99834.53;;;-0.11;92.17
60337;BME280;46978;50.288;28.624;2023-05-11T01:53:53;99848.13;;;-0.12;92.67
60337;BME280;46978;50.288;28.624;2023-05-11T01:54:58;99848.13;;;-0.12;93.68
60337;BME280;46978;50.288;28.624;2023-05-11T01:56:01;99845.52;;;-0.14;93.47
60337;BME280;46978;50.288;28.624;2023-05-11T01:57:04;99840.37;;;-0.15;93.29
60337;BME280;46978;50.288;28.624;2023-05-11T01:58:08;99842.03;;;-0.16;93.36
60337;BME280;46978;50.288;28.624;2023-05-11T01:59:11;99849.63;;;-0.17;93.41
60337;BME280;46978;50.288;28.624;2023-05-11T02:00:15;99845.42;;;-0.17;93.55
60337;BME280;46978;50.288;28.624;2023-05-11T02:01:18;99846.22;;;-0.18;93.35
60337;BME280;46978;50.288;28.624;2023-05-11T02:02:20;99852.13;;;-0.19;93.14
60337;BME280;46978;50.288;28.624;2023-05-11T02:03:24;99846.13;;;-0.21;92.74
60337;BME280;46978;50.288;28.624;2023-05-11T02:04:27;99844.33;;;-0.24;92.50
60337;BME280;46978;50.288;28.624;2023-05-11T02:05:30;99849.33;;;-0.27;92.35
60337;BME280;46978;50.288;28.624;2023-05-11T02:06:34;99849.33;;;-0.27;92.35
60337;BME280;46978;50.288;28.624;2023-05-11T02:07:39;99852.66;;;-0.29;92.47
60337;BME280;46978;50.288;28.624;2023-05-11T02:08:44;99850.06;;;-0.31;92.63
60337;BME280;46978;50.288;28.624;2023-05-11T02:09:47;99850.06;;;-0.31;93.01
60337;BME280;46978;50.288;28.624;2023-05-11T02:10:50;99844.08;;;-0.31;93.25
60337;BME280;46978;50.288;28.624;2023-05-11T02:11:54;99856.87;;;-0.30;93.39
60337;BME280;46978;50.288;28.624;2023-05-11T02:12:57;99849.28;;;-0.28;93.69
60337;BME280;46978;50.288;28.624;2023-05-11T02:14:00;99853.52;;;-0.29;93.69
60337;BME280;46978;50.288;28.624;2023-05-11T02:15:04;99851.83;;;-0.28;93.78
60337;BME280;46978;50.288;28.624;2023-05-11T02:16:08;99855.27;;;-0.28;94.10
60337;BME280;46978;50.288;28.624;2023-05-11T02:17:10;99855.27;;;-0.28;94.21
60337;BME280;46978;50.288;28.624;2023-05-11T02:18:14;99855.27;;;-0.28;94.14
60337;BME280;46978;50.288;28.624;2023-05-11T02:19:17;99850.11;;;-0.29;93.76
60337;BME280;46978;50.288;28.624;2023-05-11T02:20:21;99850.92;;;-0.30;93.86
60337;BME280;46978;50.288;28.624;2023-05-11T02:21:26;99852.66;;;-0.29;94.55
60337;BME280;46978;50.288;28.624;2023-05-11T02:22:28;99853.47;;;-0.30;94.02
60337;BME280;46978;50.288;28.624;2023-05-11T02:23:31;99854.27;;;-0.31;93.79
60337;BME280;46978;50.288;28.624;2023-05-11T02:24:34;99854.22;;;-0.33;93.34
60337;BME280;46978;50.288;28.624;2023-05-11T02:25:40;99856.77;;;-0.33;93.26
60337;BME280;46978;50.288;28.624;2023-05-11T02:26:43;99854.22;;;-0.33;93.23
60337;BME280;46978;50.288;28.624;2023-05-11T02:27:44;99861.06;;;-0.32;93.89
60337;BME280;46978;50.288;28.624;2023-05-11T02:28:46;99857.66;;;-0.32;93.75
60337;BME280;46978;50.288;28.624;2023-05-11T02:29:48;99858.52;;;-0.32;94.03
60337;BME280;46978;50.288;28.624;2023-05-11T02:30:53;99864.47;;;-0.31;93.79
60337;BME280;46978;50.288;28.624;2023-05-11T02:31:59;99850.06;;;-0.31;94.01
60337;BME280;46978;50.288;28.624;2023-05-11T02:33:03;99858.63;;;-0.29;94.64
60337;BME280;46978;50.288;28.624;2023-05-11T02:34:08;99862.08;;;-0.27;95.19
60337;BME280;46978;50.288;28.624;2023-05-11T02:35:15;99863.87;;;-0.24;95.45
60337;BME280;46978;50.288;28.624;2023-05-11T02:36:19;99861.38;;;-0.23;95.45
60337;BME280;46978;50.288;28.624;2023-05-11T02:37:24;99860.57;;;-0.22;95.25
60337;BME280;46978;50.288;28.624;2023-05-11T02:38:29;99858.92;;;-0.20;95.10
60337;BME280;46978;50.288;28.624;2023-05-11T02:39:34;99862.28;;;-0.21;94.18
60337;BME280;46978;50.288;28.624;2023-05-11T02:40:45;99858.92;;;-0.20;94.12
60337;BME280;46978;50.288;28.624;2023-05-11T02:41:52;99868.33;;;-0.19;94.35
60337;BME280;46978;50.288;28.624;2023-05-11T02:42:55;99864.23;;;-0.13;94.65
60337;BME280;46978;50.288;28.624;2023-05-11T02:44:00;99864.33;;;-0.10;94.63
60337;BME280;46978;50.288;28.624;2023-05-11T02:45:05;99863.58;;;-0.08;94.62
60337;BME280;46978;50.288;28.624;2023-05-11T02:46:13;99864.44;;;-0.07;94.22
60337;BME280;46978;50.288;28.624;2023-05-11T02:47:17;99862.84;;;-0.04;94.04
60337;BME280;46978;50.288;28.624;2023-05-11T02:48:24;99869.84;;;0.02;93.62
60337;BME280;46978;50.288;28.624;2023-05-11T02:49:28;99859.88;;;0.10;93.73
60337;BME280;46978;50.288;28.624;2023-05-11T02:50:34;99861.02;;;0.20;93.83
60337;BME280;46978;50.288;28.624;2023-05-11T02:51:38;99870.02;;;0.35;93.99
60337;BME280;46978;50.288;28.624;2023-05-11T02:52:44;99868.78;;;0.50;93.74
60337;BME280;46978;50.288;28.624;2023-05-11T02:53:47;99864.95;;;0.64;93.04
60337;BME280;46978;50.288;28.624;2023-05-11T02:54:51;99863.61;;;0.77;92.90
60337;BME280;46978;50.288;28.624;2023-05-11T02:55:54;99865.58;;;0.86;92.37
60337;BME280;46978;50.288;28.624;2023-05-11T02:56:57;99865.03;;;0.96;92.27
60337;BME280;46978;50.288;28.624;2023-05-11T02:57:59;99867.18;;;1.13;91.91
60337;BME280;46978;50.288;28.624;2023-05-11T02:59:01;99865.94;;;1.29;90.78
60337;BME280;46978;50.288;28.624;2023-05-11T03:00:04;99863.84;;;1.47;90.46
60337;BME280;46978;50.288;28.624;2023-05-11T03:01:06;99866.96;;;1.69;90.22
60337;BME280;46978;50.288;28.624;2023-05-11T03:02:08;99865.91;;;1.94;89.72
60337;BME280;46978;50.288;28.624;2023-05-11T03:03:10;99868.89;;;2.11;88.67
60337;BME280;46978;50.288;28.624;2023-05-11T03:04:12;99864.06;;;2.23;88.14
60337;BME280;46978;50.288;28.624;2023-05-11T03:05:13;99864.34;;;2.36;87.24
60337;BME280;46978;50.288;28.624;2023-05-11T03:06:15;99871.28;;;2.41;86.76
60337;BME280;46978;50.288;28.624;2023-05-11T03:07:17;99860.25;;;2.44;86.10
60337;BME280;46978;50.288;28.624;2023-05-11T03:08:18;99870.46;;;2.42;85.47
60337;BME280;46978;50.288;28.624;2023-05-11T03:09:20;99865.27;;;2.39;85.22
60337;BME280;46978;50.288;28.624;2023-05-11T03:10:24;99870.36;;;2.38;85.22
60337;BME280;46978;50.288;28.624;2023-05-11T03:11:27;99870.32;;;2.36;85.10
60337;BME280;46978;50.288;28.624;2023-05-11T03:12:29;99866.91;;;2.36;85.00
60337;BME280;46978;50.288;28.624;2023-05-11T03:13:31;99879.64;;;2.32;84.73
60337;BME280;46978;50.288;28.624;2023-05-11T03:14:34;99879.64;;;2.32;84.73
60337;BME280;46978;50.288;28.624;2023-05-11T03:15:37;99877.94;;;2.33;84.78
60337;BME280;46978;50.288;28.624;2023-05-11T03:16:40;99875.34;;;2.31;84.74
60337;BME280;46978;50.288;28.624;2023-05-11T03:17:42;99879.64;;;2.32;84.76
60337;BME280;46978;50.288;28.624;2023-05-11T03:18:44;99874.48;;;2.31;84.81
60337;BME280;46978;50.288;28.624;2023-05-11T03:19:46;99883.05;;;2.33;84.78
60337;BME280;46978;50.288;28.624;2023-05-11T03:20:49;99883.05;;;2.33;84.72
60337;BME280;46978;50.288;28.624;2023-05-11T03:21:51;99885.62;;;2.33;84.63
60337;BME280;46978;50.288;28.624;2023-05-11T03:22:55;99885.62;;;2.33;84.63
60337;BME280;46978;50.288;28.624;2023-05-11T03:23:57;99883.05;;;2.33;84.86
60337;BME280;46978;50.288;28.624;2023-05-11T03:24:59;99882.16;;;2.31;84.87
60337;BME280;46978;50.288;28.624;2023-05-11T03:26:03;99877.00;;;2.29;85.53
60337;BME280;46978;50.288;28.624;2023-05-11T03:27:07;99877.00;;;2.29;85.53
60337;BME280;46978;50.288;28.624;2023-05-11T03:28:10;99884.83;;;2.36;85.58
60337;BME280;46978;50.288;28.624;2023-05-11T03:29:14;99884.91;;;2.39;85.71
60337;BME280;46978;50.288;28.624;2023-05-11T03:30:18;99885.80;;;2.41;85.89
60337;BME280;46978;50.288;28.624;2023-05-11T03:31:20;99889.21;;;2.41;85.91
60337;BME280;46978;50.288;28.624;2023-05-11T03:32:22;99892.70;;;2.43;86.10
60337;BME280;46978;50.288;28.624;2023-05-11T03:33:24;99885.02;;;2.43;86.16
60337;BME280;46978;50.288;28.624;2023-05-11T03:34:25;99885.94;;;2.47;86.12
60337;BME280;46978;50.288;28.624;2023-05-11T03:35:29;99891.88;;;2.46;85.95
60337;BME280;46978;50.288;28.624;2023-05-11T03:36:32;99893.69;;;2.50;85.96
60337;BME280;46978;50.288;28.624;2023-05-11T03:37:36;99888.60;;;2.51;85.76
60337;BME280;46978;50.288;28.624;2023-05-11T03:38:38;99891.23;;;2.55;85.76
60337;BME280;46978;50.288;28.624;2023-05-11T03:39:42;99890.55;;;2.62;85.52
60337;BME280;46978;50.288;28.624;2023-05-11T03:40:46;99890.55;;;2.62;85.52
60337;BME280;46978;50.288;28.624;2023-05-11T03:41:49;99892.33;;;2.66;85.50
60337;BME280;46978;50.288;28.624;2023-05-11T03:42:53;99893.22;;;2.68;85.44
60337;BME280;46978;50.288;28.624;2023-05-11T03:43:57;99898.45;;;2.73;85.23
60337;BME280;46978;50.288;28.624;2023-05-11T03:45:02;99892.53;;;2.75;85.23
60337;BME280;46978;50.288;28.624;2023-05-11T03:46:05;99895.20;;;2.80;85.14
60337;BME280;46978;50.288;28.624;2023-05-11T03:47:08;99899.58;;;2.84;85.02
60337;BME280;46978;50.288;28.624;2023-05-11T03:48:10;99896.22;;;2.88;84.83
60337;BME280;46978;50.288;28.624;2023-05-11T03:49:14;99892.91;;;2.92;84.67
60337;BME280;46978;50.288;28.624;2023-05-11T03:50:16;99891.35;;;3.00;84.69
60337;BME280;46978;50.288;28.624;2023-05-11T03:51:19;99891.35;;;3.00;84.69
60337;BME280;46978;50.288;28.624;2023-05-11T03:52:22;99899.08;;;3.02;84.16
60337;BME280;46978;50.288;28.624;2023-05-11T03:53:24;99901.70;;;3.05;84.18
60337;BME280;46978;50.288;28.624;2023-05-11T03:54:26;99897.50;;;3.07;84.00
60337;BME280;46978;50.288;28.624;2023-05-11T03:55:27;99897.50;;;3.07;83.90
60337;BME280;46978;50.288;28.624;2023-05-11T03:56:29;99897.53;;;3.09;83.78
60337;BME280;46978;50.288;28.624;2023-05-11T03:57:31;99898.38;;;3.09;84.07
60337;BME280;46978;50.288;28.624;2023-05-11T03:58:38;99901.84;;;3.11;84.22
60337;BME280;46978;50.288;28.624;2023-05-11T03:59:40;99896.73;;;3.13;84.40
60337;BME280;46978;50.288;28.624;2023-05-11T04:00:42;99901.08;;;3.15;84.73
60337;BME280;46978;50.288;28.624;2023-05-11T04:01:44;99901.99;;;3.19;84.91
60337;BME280;46978;50.288;28.624;2023-05-11T04:02:46;99897.81;;;3.22;84.91
60337;BME280;46978;50.288;28.624;2023-05-11T04:03:49;99895.34;;;3.27;85.03
60337;BME280;46978;50.288;28.624;2023-05-11T04:04:51;99900.59;;;3.33;85.07
60337;BME280;46978;50.288;28.624;2023-05-11T04:05:53;99896.41;;;3.38;85.04
60337;BME280;46978;50.288;28.624;2023-05-11T04:06:55;99898.23;;;3.44;84.97
60337;BME280;46978;50.288;28.624;2023-05-11T04:07:57;99892.36;;;3.51;84.90
60337;BME280;46978;50.288;28.624;2023-05-11T04:08:59;99893.40;;;3.59;84.85
60337;BME280;46978;50.288;28.624;2023-05-11T04:10:01;99905.48;;;3.67;85.21
60337;BME280;46978;50.288;28.624;2023-05-11T04:11:02;99900.46;;;3.73;85.61
60337;BME280;46978;50.288;28.624;2023-05-11T04:12:04;99898.89;;;3.80;85.86
60337;BME280;46978;50.288;28.624;2023-05-11T04:13:06;99899.83;;;3.85;86.08
60337;BME280;46978;50.288;28.624;2023-05-11T04:14:08;99901.63;;;3.89;86.00
60337;BME280;46978;50.288;28.624;2023-05-11T04:15:10;99901.73;;;3.95;85.58
60337;BME280;46978;50.288;28.624;2023-05-11T04:16:11;99907.83;;;4.02;85.43
60337;BME280;46978;50.288;28.624;2023-05-11T04:17:13;99908.76;;;4.07;85.41
60337;BME280;46978;50.288;28.624;2023-05-11T04:18:15;99906.30;;;4.13;85.34
60337;BME280;46978;50.288;28.624;2023-05-11T04:19:16;99909.84;;;4.21;85.04
60337;BME280;46978;50.288;28.624;2023-05-11T04:20:18;99912.54;;;4.29;84.75
60337;BME280;46978;50.288;28.624;2023-05-11T04:21:19;99914.41;;;4.38;84.57
60337;BME280;46978;50.288;28.624;2023-05-11T04:22:21;99915.34;;;4.44;84.13
60337;BME280;46978;50.288;28.624;2023-05-11T04:23:23;99913.77;;;4.51;83.90
60337;BME280;46978;50.288;28.624;2023-05-11T04:24:24;99918.11;;;4.57;83.61
60337;BME280;46978;50.288;28.624;2023-05-11T04:25:26;99916.47;;;4.60;83.29
60337;BME280;46978;50.288;28.624;2023-05-11T04:26:27;99918.22;;;4.64;83.20
60337;BME280;46978;50.288;28.624;2023-05-11T04:27:34;99916.63;;;4.71;83.24
60337;BME280;46978;50.288;28.624;2023-05-11T04:28:35;99920.97;;;4.77;82.99
60337;BME280;46978;50.288;28.624;2023-05-11T04:29:37;99915.06;;;4.82;82.55
60337;BME280;46978;50.288;28.624;2023-05-11T04:30:38;99921.11;;;4.86;82.44
60337;BME280;46978;50.288;28.624;2023-05-11T04:31:40;99921.17;;;4.91;82.40
60337;BME280;46978;50.288;28.624;2023-05-11T04:32:41;99923.83;;;4.97;82.30
60337;BME280;46978;50.288;28.624;2023-05-11T04:33:43;99926.46;;;5.01;82.08
60337;BME280;46978;50.288;28.624;2023-05-11T04:34:44;99929.09;;;5.06;82.02
60337;BME280;46978;50.288;28.624;2023-05-11T04:35:49;99920.58;;;5.10;82.01
60337;BME280;46978;50.288;28.624;2023-05-11T04:36:51;99918.91;;;5.14;82.09
60337;BME280;46978;50.288;28.624;2023-05-11T04:37:52;99928.38;;;5.16;81.97
60337;BME280;46978;50.288;28.624;2023-05-11T04:38:54;99920.70;;;5.19;81.74
60337;BME280;46978;50.288;28.624;2023-05-11T04:39:56;99922.50;;;5.25;81.76
60337;BME280;46978;50.288;28.624;2023-05-11T04:41:05;99919.11;;;5.31;82.46
60337;BME280;46978;50.288;28.624;2023-05-11T04:42:07;99923.50;;;5.38;82.17
60337;BME280;46978;50.288;28.624;2023-05-11T04:43:09;99922.70;;;5.45;81.97
60337;BME280;46978;50.288;28.624;2023-05-11T04:44:11;99926.23;;;5.52;81.81
60337;BME280;46978;50.288;28.624;2023-05-11T04:45:13;99912.55;;;5.57;82.04
60337;BME280;46978;50.288;28.624;2023-05-11T04:46:14;99923.80;;;5.64;82.12
60337;BME280;46978;50.288;28.624;2023-05-11T04:47:16;99916.98;;;5.69;82.19
60337;BME280;46978;50.288;28.624;2023-05-11T04:48:18;99922.20;;;5.77;81.58
60337;BME280;46978;50.288;28.624;2023-05-11T04:49:19;99922.25;;;5.82;79.37
60337;BME280;46978;50.288;28.624;2023-05-11T04:50:21;99921.42;;;5.83;78.93
60337;BME280;46978;50.288;28.624;2023-05-11T04:51:22;99920.61;;;5.90;79.51
60337;BME280;46978;50.288;28.624;2023-05-11T04:52:24;99925.82;;;5.96;78.57
60337;BME280;46978;50.288;28.624;2023-05-11T04:53:26;99926.81;;;6.04;78.27
60337;BME280;46978;50.288;28.624;2023-05-11T04:54:27;99922.57;;;6.11;76.95
60337;BME280;46978;50.288;28.624;2023-05-11T04:55:29;99924.36;;;6.18;75.33
60337;BME280;46978;50.288;28.624;2023-05-11T04:56:30;99925.27;;;6.25;73.89
60337;BME280;46978;50.288;28.624;2023-05-11T04:57:32;99931.33;;;6.32;73.03
60337;BME280;46978;50.288;28.624;2023-05-11T04:58:33;99926.22;;;6.38;71.54
60337;BME280;46978;50.288;28.624;2023-05-11T04:59:35;99926.25;;;6.42;70.95
60337;BME280;46978;50.288;28.624;2023-05-11T05:00:36;99925.45;;;6.48;69.71
60337;BME280;46978;50.288;28.624;2023-05-11T05:01:38;99931.50;;;6.53;69.72
60337;BME280;46978;50.288;28.624;2023-05-11T05:02:40;99933.27;;;6.59;68.66
60337;BME280;46978;50.288;28.624;2023-05-11T05:03:41;99930.72;;;6.63;68.35
60337;BME280;46978;50.288;28.624;2023-05-11T05:04:43;99938.48;;;6.67;67.20
60337;BME280;46978;50.288;28.624;2023-05-11T05:05:44;99936.78;;;6.72;66.83
60337;BME280;46978;50.288;28.624;2023-05-11T05:06:46;99933.38;;;6.76;66.91
60337;BME280;46978;50.288;28.624;2023-05-11T05:07:48;99930.82;;;6.79;65.14
60337;BME280;46978;50.288;28.624;2023-05-11T05:08:49;99935.13;;;6.83;65.23
60337;BME280;46978;50.288;28.624;2023-05-11T05:09:51;99932.58;;;6.89;65.54
60337;BME280;46978;50.288;28.624;2023-05-11T05:10:53;99936.93;;;6.95;65.65
60337;BME280;46978;50.288;28.624;2023-05-11T05:11:54;99923.21;;;7.00;65.25
60337;BME280;46978;50.288;28.624;2023-05-11T05:12:56;99929.25;;;7.07;65.26
60337;BME280;46978;50.288;28.624;2023-05-11T05:13:58;99932.72;;;7.14;64.20
60337;BME280;46978;50.288;28.624;2023-05-11T05:14:59;99932.75;;;7.20;64.10
60337;BME280;46978;50.288;28.624;2023-05-11T05:16:01;99932.78;;;7.28;64.23
60337;BME280;46978;50.288;28.624;2023-05-11T05:17:02;99931.13;;;7.38;64.02
60337;BME280;46978;50.288;28.624;2023-05-11T05:18:04;99929.42;;;7.46;63.88
60337;BME280;46978;50.288;28.624;2023-05-11T05:19:05;99930.30;;;7.54;63.27
60337;BME280;46978;50.288;28.624;2023-05-11T05:20:08;99937.23;;;7.61;62.22
60337;BME280;46978;50.288;28.624;2023-05-11T05:21:09;99925.17;;;7.66;61.23
60337;BME280;46978;50.288;28.624;2023-05-11T05:22:11;99936.41;;;7.71;60.95
60337;BME280;46978;50.288;28.624;2023-05-11T05:23:13;99937.27;;;7.77;60.37
60337;BME280;46978;50.288;28.624;2023-05-11T05:24:14;99935.55;;;7.83;59.64
60337;BME280;46978;50.288;28.624;2023-05-11T05:25:16;99939.03;;;7.88;59.04
60337;BME280;46978;50.288;28.624;2023-05-11T05:26:17;99941.59;;;7.93;59.01
60337;BME280;46978;50.288;28.624;2023-05-11T05:27:19;99935.58;;;7.97;59.00
60337;BME280;46978;50.288;28.624;2023-05-11T05:28:21;99937.33;;;8.03;59.22
60337;BME280;46978;50.288;28.624;2023-05-11T05:29:22;99938.19;;;8.10;59.05
60337;BME280;46978;50.288;28.624;2023-05-11T05:30:24;99941.63;;;8.18;58.89
60337;BME280;46978;50.288;28.624;2023-05-11T05:31:25;99939.94;;;8.24;58.03
60337;BME280;46978;50.288;28.624;2023-05-11T05:32:27;99942.52;;;8.29;58.11
60337;BME280;46978;50.288;28.624;2023-05-11T05:33:28;99936.47;;;8.36;58.54
60337;BME280;46978;50.288;28.624;2023-05-11T05:34:30;99947.73;;;8.45;58.20
60337;BME280;46978;50.288;28.624;2023-05-11T05:35:32;99940.82;;;8.53;57.80
60337;BME280;46978;50.288;28.624;2023-05-11T05:36:34;99939.08;;;8.61;57.59
60337;BME280;46978;50.288;28.624;2023-05-11T05:37:35;99942.55;;;8.69;57.28
60337;BME280;46978;50.288;28.624;2023-05-11T05:38:37;99943.38;;;8.79;57.15
60337;BME280;46978;50.288;28.624;2023-05-11T05:39:38;99937.34;;;8.86;56.92
60337;BME280;46978;50.288;28.624;2023-05-11T05:40:40;99948.53;;;8.94;56.26
60337;BME280;46978;50.288;28.624;2023-05-11T05:41:42;99940.75;;;9.02;55.43
60337;BME280;46978;50.288;28.624;2023-05-11T05:42:44;99946.77;;;9.07;55.55
60337;BME280;46978;50.288;28.624;2023-05-11T05:43:45;99941.57;;;9.13;54.56
60337;BME280;46978;50.288;28.624;2023-05-11T05:44:47;99941.55;;;9.18;53.89